sensor_id;sensor_type;location;lat;lon;timestamp;P1;durP1;ratioP1;P2;durP2;ratioP2
8927;SDS011;4499;48.304;11.902;2023-08-21T00:01:32;10.20;;;9.30;;
8927;SDS011;4499;48.304;11.902;2023-08-21T00:04:00;9.63;;;8.73;;
8927;SDS011;4499;48.304;11.902;2023-08-21T00:06:31;9.80;;;8.80;;
8927;SDS011;4499;48.304;11.902;2023-08-21T00:09:00;9.77;;;8.77;;
8927;SDS011;4499;48.304;11.902;2023-08-21T00:11:28;9.27;;;8.37;;
8927;SDS011;4499;48.304;11.902;2023-08-21T00:13:56;10.20;;;9.30;;
8927;SDS011;4499;48.304;11.902;2023-08-21T00:16:24;10.40;;;9.30;;
8927;SDS011;4499;48.304;11.902;2023-08-21T00:18:55;10.67;;;9.67;;
8927;SDS011;4499;48.304;11.902;2023-08-21T00:21:23;9.97;;;9.07;;
8927;SDS011;4499;48.304;11.902;2023-08-21T00:23:53;10.40;;;9.40;;
8927;SDS011;4499;48.304;11.902;2023-08-21T00:26:21;10.80;;;9.70;;
8927;SDS011;4499;48.304;11.902;2023-08-21T00:28:49;10.50;;;9.50;;
8927;SDS011;4499;48.304;11.902;2023-08-21T00:31:17;10.73;;;9.50;;
8927;SDS011;4499;48.304;11.902;2023-08-21T00:33:45;11.50;;;10.40;;
8927;SDS011;4499;48.304;11.902;2023-08-21T00:36:13;12.57;;;10.50;;
8927;SDS011;4499;48.304;11.902;2023-08-21T00:38:42;11.00;;;9.93;;
8927;SDS011;4499;48.304;11.902;2023-08-21T00:41:11;12.13;;;10.77;;
8927;SDS011;4499;48.304;11.902;2023-08-21T00:43:40;12.17;;;11.17;;
8927;SDS011;4499;48.304;11.902;2023-08-21T00:46:08;11.57;;;10.47;;
8927;SDS011;4499;48.304;11.902;2023-08-21T00:48:37;12.07;;;10.97;;
8927;SDS011;4499;48.304;11.902;2023-08-21T00:51:05;12.17;;;10.97;;
8927;SDS011;4499;48.304;11.902;2023-08-21T00:53:34;12.10;;;10.90;;
8927;SDS011;4499;48.304;11.902;2023-08-21T00:56:02;11.93;;;10.73;;
8927;SDS011;4499;48.304;11.902;2023-08-21T00:58:32;12.20;;;11.10;;
8927;SDS011;4499;48.304;11.902;2023-08-21T01:01:00;12.17;;;10.93;;
8927;SDS011;4499;48.304;11.902;2023-08-21T01:03:31;12.47;;;11.27;;
8927;SDS011;4499;48.304;11.902;2023-08-21T01:05:59;12.50;;;11.30;;
8927;SDS011;4499;48.304;11.902;2023-08-21T01:08:28;12.50;;;11.20;;
8927;SDS011;4499;48.304;11.902;2023-08-21T01:11:05;13.37;;;12.07;;
8927;SDS011;4499;48.304;11.902;2023-08-21T01:13:43;12.87;;;11.67;;
8927;SDS011;4499;48.304;11.902;2023-08-21T01:16:16;11.97;;;10.83;;
8927;SDS011;4499;48.304;11.902;2023-08-21T01:18:45;13.10;;;11.83;;
8927;SDS011;4499;48.304;11.902;2023-08-21T01:21:15;13.03;;;11.93;;
8927;SDS011;4499;48.304;11.902;2023-08-21T01:23:46;12.63;;;11.33;;
8927;SDS011;4499;48.304;11.902;2023-08-21T01:26:14;11.33;;;10.33;;
8927;SDS011;4499;48.304;11.902;2023-08-21T01:28:42;12.93;;;11.70;;
8927;SDS011;4499;48.304;11.902;2023-08-21T01:31:11;11.97;;;10.77;;
8927;SDS011;4499;48.304;11.902;2023-08-21T01:33:47;12.10;;;10.80;;
8927;SDS011;4499;48.304;11.902;2023-08-21T01:36:18;11.50;;;10.30;;
8927;SDS011;4499;48.304;11.902;2023-08-21T01:38:48;11.80;;;10.60;;
8927;SDS011;4499;48.304;11.902;2023-08-21T01:41:17;11.80;;;10.70;;
8927;SDS011;4499;48.304;11.902;2023-08-21T01:43:45;12.37;;;11.20;;
8927;SDS011;4499;48.304;11.902;2023-08-21T01:46:13;12.37;;;11.13;;
8927;SDS011;4499;48.304;11.902;2023-08-21T01:48:41;11.80;;;10.70;;
8927;SDS011;4499;48.304;11.902;2023-08-21T01:51:09;13.00;;;11.80;;
8927;SDS011;4499;48.304;11.902;2023-08-21T01:53:37;12.10;;;10.90;;
8927;SDS011;4499;48.304;11.902;2023-08-21T01:56:07;13.23;;;11.83;;
8927;SDS011;4499;48.304;11.902;2023-08-21T01:58:35;12.13;;;10.93;;
8927;SDS011;4499;48.304;11.902;2023-08-21T02:01:03;12.53;;;11.43;;
8927;SDS011;4499;48.304;11.902;2023-08-21T02:03:32;13.33;;;10.83;;
8927;SDS011;4499;48.304;11.902;2023-08-21T02:06:00;11.77;;;10.67;;
8927;SDS011;4499;48.304;11.902;2023-08-21T02:08:30;12.90;;;11.60;;
8927;SDS011;4499;48.304;11.902;2023-08-21T02:10:59;12.80;;;11.60;;
8927;SDS011;4499;48.304;11.902;2023-08-21T02:13:28;13.33;;;11.97;;
8927;SDS011;4499;48.304;11.902;2023-08-21T02:15:57;12.63;;;11.43;;
8927;SDS011;4499;48.304;11.902;2023-08-21T02:18:25;13.57;;;12.10;;
8927;SDS011;4499;48.304;11.902;2023-08-21T02:20:53;15.43;;;12.10;;
8927;SDS011;4499;48.304;11.902;2023-08-21T02:23:21;12.23;;;10.97;;
8927;SDS011;4499;48.304;11.902;2023-08-21T02:25:50;12.30;;;11.20;;
8927;SDS011;4499;48.304;11.902;2023-08-21T02:28:19;13.67;;;11.47;;
8927;SDS011;4499;48.304;11.902;2023-08-21T02:30:48;12.90;;;11.67;;
8927;SDS011;4499;48.304;11.902;2023-08-21T02:33:16;13.40;;;12.03;;
8927;SDS011;4499;48.304;11.902;2023-08-21T02:35:44;12.37;;;11.10;;
8927;SDS011;4499;48.304;11.902;2023-08-21T02:38:12;13.10;;;11.80;;
8927;SDS011;4499;48.304;11.902;2023-08-21T02:40:40;13.57;;;11.33;;
8927;SDS011;4499;48.304;11.902;2023-08-21T02:43:09;13.20;;;11.80;;
8927;SDS011;4499;48.304;11.902;2023-08-21T02:45:37;12.90;;;11.63;;
8927;SDS011;4499;48.304;11.902;2023-08-21T02:48:07;13.47;;;12.13;;
8927;SDS011;4499;48.304;11.902;2023-08-21T02:50:35;11.80;;;10.70;;
8927;SDS011;4499;48.304;11.902;2023-08-21T02:53:03;13.37;;;11.97;;
8927;SDS011;4499;48.304;11.902;2023-08-21T02:55:31;12.20;;;10.93;;
8927;SDS011;4499;48.304;11.902;2023-08-21T02:57:59;12.90;;;11.60;;
8927;SDS011;4499;48.304;11.902;2023-08-21T03:00:27;14.13;;;12.70;;
8927;SDS011;4499;48.304;11.902;2023-08-21T03:02:55;12.13;;;11.03;;
8927;SDS011;4499;48.304;11.902;2023-08-21T03:05:25;12.70;;;11.57;;
8927;SDS011;4499;48.304;11.902;2023-08-21T03:07:53;12.70;;;11.27;;
8927;SDS011;4499;48.304;11.902;2023-08-21T03:10:21;12.80;;;11.50;;
8927;SDS011;4499;48.304;11.902;2023-08-21T03:12:50;14.80;;;13.00;;
8927;SDS011;4499;48.304;11.902;2023-08-21T03:15:18;12.77;;;11.67;;
8927;SDS011;4499;48.304;11.902;2023-08-21T03:17:46;13.10;;;11.83;;
8927;SDS011;4499;48.304;11.902;2023-08-21T03:20:14;12.80;;;11.60;;
8927;SDS011;4499;48.304;11.902;2023-08-21T03:22:45;14.90;;;12.37;;
8927;SDS011;4499;48.304;11.902;2023-08-21T03:25:13;12.80;;;11.60;;
8927;SDS011;4499;48.304;11.902;2023-08-21T03:27:41;13.30;;;11.90;;
8927;SDS011;4499;48.304;11.902;2023-08-21T03:30:11;12.90;;;11.60;;
8927;SDS011;4499;48.304;11.902;2023-08-21T03:32:41;12.40;;;11.20;;
8927;SDS011;4499;48.304;11.902;2023-08-21T03:35:09;12.30;;;11.30;;
8927;SDS011;4499;48.304;11.902;2023-08-21T03:37:38;12.77;;;11.53;;
8927;SDS011;4499;48.304;11.902;2023-08-21T03:40:08;13.47;;;12.17;;
8927;SDS011;4499;48.304;11.902;2023-08-21T03:42:36;12.50;;;11.33;;
8927;SDS011;4499;48.304;11.902;2023-08-21T03:45:05;13.27;;;12.07;;
8927;SDS011;4499;48.304;11.902;2023-08-21T03:47:34;14.03;;;12.63;;
8927;SDS011;4499;48.304;11.902;2023-08-21T03:50:02;14.23;;;12.80;;
8927;SDS011;4499;48.304;11.902;2023-08-21T03:52:31;14.90;;;13.30;;
8927;SDS011;4499;48.304;11.902;2023-08-21T03:54:59;14.73;;;13.40;;
8927;SDS011;4499;48.304;11.902;2023-08-21T03:57:28;14.23;;;12.77;;
8927;SDS011;4499;48.304;11.902;2023-08-21T03:59:56;14.23;;;12.77;;
8927;SDS011;4499;48.304;11.902;2023-08-21T04:02:25;15.47;;;13.83;;
8927;SDS011;4499;48.304;11.902;2023-08-21T04:04:53;13.80;;;12.60;;
8927;SDS011;4499;48.304;11.902;2023-08-21T04:07:21;13.93;;;12.63;;
8927;SDS011;4499;48.304;11.902;2023-08-21T04:09:49;13.87;;;12.57;;
8927;SDS011;4499;48.304;11.902;2023-08-21T04:12:17;13.50;;;12.20;;
8927;SDS011;4499;48.304;11.902;2023-08-21T04:14:46;14.10;;;12.80;;
8927;SDS011;4499;48.304;11.902;2023-08-21T04:17:15;13.80;;;12.50;;
8927;SDS011;4499;48.304;11.902;2023-08-21T04:19:48;14.90;;;13.30;;
8927;SDS011;4499;48.304;11.902;2023-08-21T04:22:16;13.80;;;12.43;;
8927;SDS011;4499;48.304;11.902;2023-08-21T04:24:45;13.47;;;12.27;;
8927;SDS011;4499;48.304;11.902;2023-08-21T04:27:13;14.67;;;13.07;;
8927;SDS011;4499;48.304;11.902;2023-08-21T04:29:41;13.70;;;12.37;;
8927;SDS011;4499;48.304;11.902;2023-08-21T04:32:10;13.40;;;12.10;;
8927;SDS011;4499;48.304;11.902;2023-08-21T04:34:38;13.43;;;12.13;;
8927;SDS011;4499;48.304;11.902;2023-08-21T04:37:07;15.80;;;12.73;;
8927;SDS011;4499;48.304;11.902;2023-08-21T04:39:36;15.53;;;12.57;;
8927;SDS011;4499;48.304;11.902;2023-08-21T04:42:04;14.73;;;13.30;;
8927;SDS011;4499;48.304;11.902;2023-08-21T04:44:32;15.57;;;13.37;;
8927;SDS011;4499;48.304;11.902;2023-08-21T04:49:49;14.90;;;13.20;;
8927;SDS011;4499;48.304;11.902;2023-08-21T04:52:17;14.03;;;12.57;;
8927;SDS011;4499;48.304;11.902;2023-08-21T04:54:46;13.53;;;12.23;;
8927;SDS011;4499;48.304;11.902;2023-08-21T04:57:14;11.50;;;10.47;;
8927;SDS011;4499;48.304;11.902;2023-08-21T04:59:43;12.33;;;11.20;;
8927;SDS011;4499;48.304;11.902;2023-08-21T05:02:11;13.50;;;11.57;;
8927;SDS011;4499;48.304;11.902;2023-08-21T05:04:41;13.43;;;11.10;;
8927;SDS011;4499;48.304;11.902;2023-08-21T05:07:09;12.53;;;11.03;;
8927;SDS011;4499;48.304;11.902;2023-08-21T05:09:37;12.13;;;10.83;;
8927;SDS011;4499;48.304;11.902;2023-08-21T05:12:07;11.17;;;10.13;;
8927;SDS011;4499;48.304;11.902;2023-08-21T05:14:35;13.53;;;10.43;;
8927;SDS011;4499;48.304;11.902;2023-08-21T05:17:03;10.47;;;9.50;;
8927;SDS011;4499;48.304;11.902;2023-08-21T05:19:31;10.87;;;9.73;;
8927;SDS011;4499;48.304;11.902;2023-08-21T05:22:01;10.50;;;9.60;;
8927;SDS011;4499;48.304;11.902;2023-08-21T05:24:29;11.67;;;10.00;;
8927;SDS011;4499;48.304;11.902;2023-08-21T05:26:58;10.63;;;9.57;;
8927;SDS011;4499;48.304;11.902;2023-08-21T05:29:27;10.00;;;9.10;;
8927;SDS011;4499;48.304;11.902;2023-08-21T05:31:55;9.90;;;8.90;;
8927;SDS011;4499;48.304;11.902;2023-08-21T05:34:23;10.27;;;8.90;;
8927;SDS011;4499;48.304;11.902;2023-08-21T05:36:52;11.53;;;9.13;;
8927;SDS011;4499;48.304;11.902;2023-08-21T05:39:22;10.70;;;9.43;;
8927;SDS011;4499;48.304;11.902;2023-08-21T05:41:50;10.53;;;9.20;;
8927;SDS011;4499;48.304;11.902;2023-08-21T05:44:19;10.77;;;9.67;;
8927;SDS011;4499;48.304;11.902;2023-08-21T05:46:47;12.70;;;9.10;;
8927;SDS011;4499;48.304;11.902;2023-08-21T05:49:15;10.50;;;9.40;;
8927;SDS011;4499;48.304;11.902;2023-08-21T05:51:43;10.07;;;8.57;;
8927;SDS011;4499;48.304;11.902;2023-08-21T05:54:11;10.63;;;9.53;;
8927;SDS011;4499;48.304;11.902;2023-08-21T05:56:41;13.60;;;10.97;;
8927;SDS011;4499;48.304;11.902;2023-08-21T05:59:10;11.30;;;10.10;;
8927;SDS011;4499;48.304;11.902;2023-08-21T06:01:38;10.80;;;9.57;;
8927;SDS011;4499;48.304;11.902;2023-08-21T06:04:06;11.13;;;10.03;;
8927;SDS011;4499;48.304;11.902;2023-08-21T06:06:34;13.77;;;10.50;;
8927;SDS011;4499;48.304;11.902;2023-08-21T06:09:02;12.53;;;10.07;;
8927;SDS011;4499;48.304;11.902;2023-08-21T06:11:31;14.00;;;10.37;;
8927;SDS011;4499;48.304;11.902;2023-08-21T06:14:00;13.90;;;11.07;;
8927;SDS011;4499;48.304;11.902;2023-08-21T06:16:28;11.53;;;10.37;;
8927;SDS011;4499;48.304;11.902;2023-08-21T06:18:56;10.90;;;9.80;;
8927;SDS011;4499;48.304;11.902;2023-08-21T06:21:24;12.43;;;10.03;;
8927;SDS011;4499;48.304;11.902;2023-08-21T06:23:52;12.13;;;10.23;;
8927;SDS011;4499;48.304;11.902;2023-08-21T06:26:21;11.87;;;10.17;;
8927;SDS011;4499;48.304;11.902;2023-08-21T06:28:49;12.10;;;8.70;;
8927;SDS011;4499;48.304;11.902;2023-08-21T06:31:20;12.47;;;9.23;;
8927;SDS011;4499;48.304;11.902;2023-08-21T06:33:48;9.20;;;8.20;;
8927;SDS011;4499;48.304;11.902;2023-08-21T06:36:16;9.10;;;8.10;;
8927;SDS011;4499;48.304;11.902;2023-08-21T06:38:44;10.23;;;7.70;;
8927;SDS011;4499;48.304;11.902;2023-08-21T06:41:12;12.70;;;7.60;;
8927;SDS011;4499;48.304;11.902;2023-08-21T06:43:40;10.07;;;7.17;;
8927;SDS011;4499;48.304;11.902;2023-08-21T06:46:11;9.97;;;7.10;;
8927;SDS011;4499;48.304;11.902;2023-08-21T06:48:40;10.33;;;7.23;;
8927;SDS011;4499;48.304;11.902;2023-08-21T06:51:09;9.70;;;6.90;;
8927;SDS011;4499;48.304;11.902;2023-08-21T06:53:42;34.87;;;8.23;;
8927;SDS011;4499;48.304;11.902;2023-08-21T06:56:10;40.73;;;8.40;;
8927;SDS011;4499;48.304;11.902;2023-08-21T06:58:38;9.40;;;6.17;;
8927;SDS011;4499;48.304;11.902;2023-08-21T07:01:07;10.30;;;6.50;;
8927;SDS011;4499;48.304;11.902;2023-08-21T07:03:35;10.00;;;6.37;;
8927;SDS011;4499;48.304;11.902;2023-08-21T07:06:05;10.47;;;6.30;;
8927;SDS011;4499;48.304;11.902;2023-08-21T07:08:33;10.67;;;6.50;;
8927;SDS011;4499;48.304;11.902;2023-08-21T07:11:01;11.03;;;6.77;;
8927;SDS011;4499;48.304;11.902;2023-08-21T07:13:31;7.67;;;6.70;;
8927;SDS011;4499;48.304;11.902;2023-08-21T07:15:59;8.83;;;7.23;;
8927;SDS011;4499;48.304;11.902;2023-08-21T07:18:29;12.70;;;6.97;;
8927;SDS011;4499;48.304;11.902;2023-08-21T07:20:58;10.00;;;6.70;;
8927;SDS011;4499;48.304;11.902;2023-08-21T07:23:28;10.03;;;6.37;;
8927;SDS011;4499;48.304;11.902;2023-08-21T07:25:56;9.80;;;6.40;;
8927;SDS011;4499;48.304;11.902;2023-08-21T07:28:25;9.27;;;6.40;;
8927;SDS011;4499;48.304;11.902;2023-08-21T07:30:56;8.48;;;6.25;;
8927;SDS011;4499;48.304;11.902;2023-08-21T07:33:25;9.00;;;5.57;;
8927;SDS011;4499;48.304;11.902;2023-08-21T07:35:57;6.82;;;5.65;;
8927;SDS011;4499;48.304;11.902;2023-08-21T07:38:29;10.88;;;5.55;;
8927;SDS011;4499;48.304;11.902;2023-08-21T07:41:02;7.55;;;5.68;;
8927;SDS011;4499;48.304;11.902;2023-08-21T07:43:32;8.40;;;5.50;;
8927;SDS011;4499;48.304;11.902;2023-08-21T07:46:04;7.25;;;5.80;;
8927;SDS011;4499;48.304;11.902;2023-08-21T07:48:34;9.55;;;5.55;;
8927;SDS011;4499;48.304;11.902;2023-08-21T07:51:03;10.30;;;5.13;;
8927;SDS011;4499;48.304;11.902;2023-08-21T07:53:32;8.10;;;5.07;;
8927;SDS011;4499;48.304;11.902;2023-08-21T07:56:01;7.47;;;4.82;;
8927;SDS011;4499;48.304;11.902;2023-08-21T07:58:30;13.50;;;5.57;;
8927;SDS011;4499;48.304;11.902;2023-08-21T08:00:59;7.97;;;5.00;;
8927;SDS011;4499;48.304;11.902;2023-08-21T08:03:27;7.80;;;4.90;;
8927;SDS011;4499;48.304;11.902;2023-08-21T08:05:56;6.72;;;5.07;;
8927;SDS011;4499;48.304;11.902;2023-08-21T08:08:25;9.45;;;4.75;;
8927;SDS011;4499;48.304;11.902;2023-08-21T08:10:59;7.53;;;5.28;;
8927;SDS011;4499;48.304;11.902;2023-08-21T08:13:28;5.97;;;5.28;;
8927;SDS011;4499;48.304;11.902;2023-08-21T08:15:56;8.38;;;5.28;;
8927;SDS011;4499;48.304;11.902;2023-08-21T08:18:25;7.50;;;5.35;;
8927;SDS011;4499;48.304;11.902;2023-08-21T08:20:53;6.93;;;5.25;;
8927;SDS011;4499;48.304;11.902;2023-08-21T08:23:21;8.95;;;5.53;;
8927;SDS011;4499;48.304;11.902;2023-08-21T08:25:49;12.60;;;4.93;;
8927;SDS011;4499;48.304;11.902;2023-08-21T08:28:19;11.73;;;5.50;;
8927;SDS011;4499;48.304;11.902;2023-08-21T08:30:47;8.68;;;5.57;;
8927;SDS011;4499;48.304;11.902;2023-08-21T08:33:15;10.10;;;5.90;;
8927;SDS011;4499;48.304;11.902;2023-08-21T08:35:44;9.35;;;5.50;;
8927;SDS011;4499;48.304;11.902;2023-08-21T08:38:12;8.50;;;6.00;;
8927;SDS011;4499;48.304;11.902;2023-08-21T08:40:42;6.93;;;5.50;;
8927;SDS011;4499;48.304;11.902;2023-08-21T08:43:11;11.77;;;5.82;;
8927;SDS011;4499;48.304;11.902;2023-08-21T08:45:42;9.20;;;5.60;;
8927;SDS011;4499;48.304;11.902;2023-08-21T08:48:14;8.63;;;5.88;;
8927;SDS011;4499;48.304;11.902;2023-08-21T08:50:43;7.85;;;5.63;;
8927;SDS011;4499;48.304;11.902;2023-08-21T08:53:13;9.52;;;5.93;;
8927;SDS011;4499;48.304;11.902;2023-08-21T08:55:43;8.25;;;5.95;;
8927;SDS011;4499;48.304;11.902;2023-08-21T08:58:11;6.03;;;5.15;;
8927;SDS011;4499;48.304;11.902;2023-08-21T09:00:39;9.05;;;4.78;;
8927;SDS011;4499;48.304;11.902;2023-08-21T09:03:09;6.40;;;5.22;;
8927;SDS011;4499;48.304;11.902;2023-08-21T09:05:39;7.55;;;5.47;;
8927;SDS011;4499;48.304;11.902;2023-08-21T09:08:11;8.63;;;5.50;;
8927;SDS011;4499;48.304;11.902;2023-08-21T09:10:41;7.07;;;5.30;;
8927;SDS011;4499;48.304;11.902;2023-08-21T09:13:12;8.05;;;5.38;;
8927;SDS011;4499;48.304;11.902;2023-08-21T09:15:43;8.30;;;5.03;;
8927;SDS011;4499;48.304;11.902;2023-08-21T09:18:14;10.05;;;5.18;;
8927;SDS011;4499;48.304;11.902;2023-08-21T09:20:42;9.80;;;5.45;;
8927;SDS011;4499;48.304;11.902;2023-08-21T09:23:13;8.90;;;5.28;;
8927;SDS011;4499;48.304;11.902;2023-08-21T09:25:43;11.32;;;5.30;;
8927;SDS011;4499;48.304;11.902;2023-08-21T09:28:14;8.50;;;5.15;;
8927;SDS011;4499;48.304;11.902;2023-08-21T09:30:50;6.70;;;4.82;;
8927;SDS011;4499;48.304;11.902;2023-08-21T09:33:19;8.80;;;5.15;;
8927;SDS011;4499;48.304;11.902;2023-08-21T09:35:49;9.70;;;5.68;;
8927;SDS011;4499;48.304;11.902;2023-08-21T09:38:21;14.52;;;6.28;;
8927;SDS011;4499;48.304;11.902;2023-08-21T09:40:50;7.82;;;5.60;;
8927;SDS011;4499;48.304;11.902;2023-08-21T09:43:20;8.35;;;5.13;;
8927;SDS011;4499;48.304;11.902;2023-08-21T09:45:50;7.90;;;5.75;;
8927;SDS011;4499;48.304;11.902;2023-08-21T09:48:21;11.05;;;5.82;;
8927;SDS011;4499;48.304;11.902;2023-08-21T09:50:50;7.15;;;5.63;;
8927;SDS011;4499;48.304;11.902;2023-08-21T09:53:19;8.25;;;5.80;;
8927;SDS011;4499;48.304;11.902;2023-08-21T09:55:48;7.80;;;5.90;;
8927;SDS011;4499;48.304;11.902;2023-08-21T09:58:20;8.38;;;6.07;;
8927;SDS011;4499;48.304;11.902;2023-08-21T10:00:51;7.45;;;5.82;;
8927;SDS011;4499;48.304;11.902;2023-08-21T10:03:23;8.02;;;5.93;;
8927;SDS011;4499;48.304;11.902;2023-08-21T10:05:54;6.88;;;5.70;;
8927;SDS011;4499;48.304;11.902;2023-08-21T10:08:25;6.38;;;5.22;;
8927;SDS011;4499;48.304;11.902;2023-08-21T10:10:55;7.38;;;5.72;;
8927;SDS011;4499;48.304;11.902;2023-08-21T10:13:30;7.70;;;5.30;;
8927;SDS011;4499;48.304;11.902;2023-08-21T10:16:01;7.63;;;5.95;;
8927;SDS011;4499;48.304;11.902;2023-08-21T10:18:30;10.07;;;5.47;;
8927;SDS011;4499;48.304;11.902;2023-08-21T10:21:12;7.82;;;5.60;;
8927;SDS011;4499;48.304;11.902;2023-08-21T10:23:42;8.95;;;5.60;;
8927;SDS011;4499;48.304;11.902;2023-08-21T10:26:13;6.95;;;5.30;;
8927;SDS011;4499;48.304;11.902;2023-08-21T10:28:42;5.57;;;5.05;;
8927;SDS011;4499;48.304;11.902;2023-08-21T10:31:31;5.72;;;5.13;;
8927;SDS011;4499;48.304;11.902;2023-08-21T10:34:01;7.50;;;5.03;;
8927;SDS011;4499;48.304;11.902;2023-08-21T10:39:36;7.75;;;5.53;;
8927;SDS011;4499;48.304;11.902;2023-08-21T10:42:07;9.20;;;5.90;;
8927;SDS011;4499;48.304;11.902;2023-08-21T10:44:46;7.13;;;5.38;;
8927;SDS011;4499;48.304;11.902;2023-08-21T10:47:19;8.48;;;5.10;;
8927;SDS011;4499;48.304;11.902;2023-08-21T10:49:50;5.88;;;5.38;;
8927;SDS011;4499;48.304;11.902;2023-08-21T10:52:20;7.65;;;5.20;;
8927;SDS011;4499;48.304;11.902;2023-08-21T10:54:50;10.32;;;5.35;;
8927;SDS011;4499;48.304;11.902;2023-08-21T10:57:20;7.15;;;4.50;;
8927;SDS011;4499;48.304;11.902;2023-08-21T10:59:53;5.20;;;4.60;;
8927;SDS011;4499;48.304;11.902;2023-08-21T11:02:24;10.25;;;5.32;;
8927;SDS011;4499;48.304;11.902;2023-08-21T11:04:53;7.45;;;4.85;;
8927;SDS011;4499;48.304;11.902;2023-08-21T11:07:21;5.18;;;4.60;;
8927;SDS011;4499;48.304;11.902;2023-08-21T11:09:50;5.55;;;4.43;;
8927;SDS011;4499;48.304;11.902;2023-08-21T11:12:19;7.13;;;4.50;;
8927;SDS011;4499;48.304;11.902;2023-08-21T11:14:48;7.55;;;4.30;;
8927;SDS011;4499;48.304;11.902;2023-08-21T11:17:17;4.35;;;3.95;;
8927;SDS011;4499;48.304;11.902;2023-08-21T11:19:49;6.47;;;4.05;;
8927;SDS011;4499;48.304;11.902;2023-08-21T11:22:18;5.18;;;4.20;;
8927;SDS011;4499;48.304;11.902;2023-08-21T11:24:46;6.50;;;4.22;;
8927;SDS011;4499;48.304;11.902;2023-08-21T11:27:17;5.38;;;3.55;;
8927;SDS011;4499;48.304;11.902;2023-08-21T11:29:50;4.20;;;3.67;;
8927;SDS011;4499;48.304;11.902;2023-08-21T11:32:19;4.20;;;3.60;;
8927;SDS011;4499;48.304;11.902;2023-08-21T11:34:51;4.45;;;3.70;;
8927;SDS011;4499;48.304;11.902;2023-08-21T11:37:20;4.45;;;3.80;;
8927;SDS011;4499;48.304;11.902;2023-08-21T11:39:50;5.28;;;3.63;;
8927;SDS011;4499;48.304;11.902;2023-08-21T11:42:20;3.50;;;3.05;;
8927;SDS011;4499;48.304;11.902;2023-08-21T11:44:50;5.90;;;3.10;;
8927;SDS011;4499;48.304;11.902;2023-08-21T11:47:20;4.57;;;3.28;;
8927;SDS011;4499;48.304;11.902;2023-08-21T11:49:50;5.70;;;3.58;;
8927;SDS011;4499;48.304;11.902;2023-08-21T11:52:19;6.18;;;4.00;;
8927;SDS011;4499;48.304;11.902;2023-08-21T11:54:49;6.53;;;4.22;;
8927;SDS011;4499;48.304;11.902;2023-08-21T11:57:18;4.03;;;3.63;;
8927;SDS011;4499;48.304;11.902;2023-08-21T11:59:50;6.70;;;3.53;;
8927;SDS011;4499;48.304;11.902;2023-08-21T12:02:21;5.88;;;3.90;;
8927;SDS011;4499;48.304;11.902;2023-08-21T12:04:56;4.65;;;3.90;;
8927;SDS011;4499;48.304;11.902;2023-08-21T12:07:29;5.55;;;3.97;;
8927;SDS011;4499;48.304;11.902;2023-08-21T12:09:57;4.60;;;4.05;;
8927;SDS011;4499;48.304;11.902;2023-08-21T12:12:25;5.80;;;4.05;;
8927;SDS011;4499;48.304;11.902;2023-08-21T12:14:53;6.50;;;4.72;;
8927;SDS011;4499;48.304;11.902;2023-08-21T12:17:21;4.95;;;4.15;;
8927;SDS011;4499;48.304;11.902;2023-08-21T12:19:50;9.00;;;4.78;;
8927;SDS011;4499;48.304;11.902;2023-08-21T12:22:19;6.50;;;4.50;;
8927;SDS011;4499;48.304;11.902;2023-08-21T12:24:47;5.80;;;5.05;;
8927;SDS011;4499;48.304;11.902;2023-08-21T12:27:16;9.68;;;5.10;;
8927;SDS011;4499;48.304;11.902;2023-08-21T12:29:46;9.40;;;4.97;;
8927;SDS011;4499;48.304;11.902;2023-08-21T12:32:14;6.07;;;4.68;;
8927;SDS011;4499;48.304;11.902;2023-08-21T12:34:43;8.93;;;5.25;;
8927;SDS011;4499;48.304;11.902;2023-08-21T12:37:11;7.88;;;5.55;;
8927;SDS011;4499;48.304;11.902;2023-08-21T12:39:43;8.38;;;5.20;;
8927;SDS011;4499;48.304;11.902;2023-08-21T12:42:12;7.95;;;5.00;;
8927;SDS011;4499;48.304;11.902;2023-08-21T12:44:40;6.22;;;4.85;;
8927;SDS011;4499;48.304;11.902;2023-08-21T12:47:08;7.82;;;5.20;;
8927;SDS011;4499;48.304;11.902;2023-08-21T12:49:36;6.88;;;4.88;;
8927;SDS011;4499;48.304;11.902;2023-08-21T12:52:05;11.10;;;5.03;;
8927;SDS011;4499;48.304;11.902;2023-08-21T12:54:36;6.70;;;5.10;;
8927;SDS011;4499;48.304;11.902;2023-08-21T12:57:05;5.05;;;4.55;;
8927;SDS011;4499;48.304;11.902;2023-08-21T12:59:34;5.95;;;4.68;;
8927;SDS011;4499;48.304;11.902;2023-08-21T13:02:02;7.82;;;4.93;;
8927;SDS011;4499;48.304;11.902;2023-08-21T13:04:32;7.00;;;4.70;;
8927;SDS011;4499;48.304;11.902;2023-08-21T13:07:00;8.48;;;5.10;;
8927;SDS011;4499;48.304;11.902;2023-08-21T13:09:30;5.45;;;4.68;;
8927;SDS011;4499;48.304;11.902;2023-08-21T13:11:59;9.07;;;4.72;;
8927;SDS011;4499;48.304;11.902;2023-08-21T13:14:30;8.05;;;4.63;;
8927;SDS011;4499;48.304;11.902;2023-08-21T13:16:58;8.65;;;4.85;;
8927;SDS011;4499;48.304;11.902;2023-08-21T13:19:27;6.90;;;4.60;;
8927;SDS011;4499;48.304;11.902;2023-08-21T13:21:55;6.68;;;4.40;;
8927;SDS011;4499;48.304;11.902;2023-08-21T13:24:23;7.95;;;4.55;;
8927;SDS011;4499;48.304;11.902;2023-08-21T13:26:52;6.07;;;4.63;;
8927;SDS011;4499;48.304;11.902;2023-08-21T13:29:20;6.28;;;4.40;;
8927;SDS011;4499;48.304;11.902;2023-08-21T13:31:50;8.27;;;4.40;;
8927;SDS011;4499;48.304;11.902;2023-08-21T13:34:18;8.23;;;4.55;;
8927;SDS011;4499;48.304;11.902;2023-08-21T13:36:47;7.45;;;4.30;;
8927;SDS011;4499;48.304;11.902;2023-08-21T13:39:15;6.75;;;4.32;;
8927;SDS011;4499;48.304;11.902;2023-08-21T13:41:43;8.07;;;4.00;;
8927;SDS011;4499;48.304;11.902;2023-08-21T13:44:11;5.13;;;3.70;;
8927;SDS011;4499;48.304;11.902;2023-08-21T13:46:39;8.95;;;4.05;;
8927;SDS011;4499;48.304;11.902;2023-08-21T13:49:08;5.63;;;4.30;;
8927;SDS011;4499;48.304;11.902;2023-08-21T13:51:37;6.03;;;3.97;;
8927;SDS011;4499;48.304;11.902;2023-08-21T13:54:05;8.77;;;4.10;;
8927;SDS011;4499;48.304;11.902;2023-08-21T13:56:33;7.95;;;4.32;;
8927;SDS011;4499;48.304;11.902;2023-08-21T13:59:01;6.47;;;4.20;;
8927;SDS011;4499;48.304;11.902;2023-08-21T14:01:29;9.05;;;4.45;;
8927;SDS011;4499;48.304;11.902;2023-08-21T14:03:57;5.95;;;3.90;;
8927;SDS011;4499;48.304;11.902;2023-08-21T14:06:27;6.00;;;3.97;;
8927;SDS011;4499;48.304;11.902;2023-08-21T14:08:55;6.68;;;4.40;;
8927;SDS011;4499;48.304;11.902;2023-08-21T14:11:23;8.88;;;3.97;;
8927;SDS011;4499;48.304;11.902;2023-08-21T14:13:52;6.68;;;4.03;;
8927;SDS011;4499;48.304;11.902;2023-08-21T14:16:20;5.93;;;3.90;;
8927;SDS011;4499;48.304;11.902;2023-08-21T14:18:48;7.30;;;4.28;;
8927;SDS011;4499;48.304;11.902;2023-08-21T14:21:16;6.63;;;4.22;;
8927;SDS011;4499;48.304;11.902;2023-08-21T14:23:45;9.20;;;4.30;;
8927;SDS011;4499;48.304;11.902;2023-08-21T14:26:13;5.82;;;4.30;;
8927;SDS011;4499;48.304;11.902;2023-08-21T14:28:42;7.50;;;4.10;;
8927;SDS011;4499;48.304;11.902;2023-08-21T14:31:16;6.60;;;4.30;;
8927;SDS011;4499;48.304;11.902;2023-08-21T14:33:44;5.25;;;4.22;;
8927;SDS011;4499;48.304;11.902;2023-08-21T14:36:12;6.72;;;4.38;;
8927;SDS011;4499;48.304;11.902;2023-08-21T14:38:40;7.90;;;4.40;;
8927;SDS011;4499;48.304;11.902;2023-08-21T14:41:10;9.32;;;3.88;;
8927;SDS011;4499;48.304;11.902;2023-08-21T14:43:38;5.22;;;3.80;;
8927;SDS011;4499;48.304;11.902;2023-08-21T14:46:06;8.82;;;4.45;;
8927;SDS011;4499;48.304;11.902;2023-08-21T14:48:34;5.90;;;4.18;;
8927;SDS011;4499;48.304;11.902;2023-08-21T14:51:03;5.05;;;4.07;;
8927;SDS011;4499;48.304;11.902;2023-08-21T14:53:31;5.88;;;4.28;;
8927;SDS011;4499;48.304;11.902;2023-08-21T14:56:00;6.80;;;4.18;;
8927;SDS011;4499;48.304;11.902;2023-08-21T14:58:31;5.60;;;4.18;;
8927;SDS011;4499;48.304;11.902;2023-08-21T15:01:00;6.40;;;4.35;;
8927;SDS011;4499;48.304;11.902;2023-08-21T15:03:31;6.18;;;4.38;;
8927;SDS011;4499;48.304;11.902;2023-08-21T15:05:59;6.35;;;4.07;;
8927;SDS011;4499;48.304;11.902;2023-08-21T15:08:27;6.70;;;4.28;;